createdAt,value
2017-12-22T00:01:40.064Z,6.50
2017-12-22T00:04:08.105Z,6.60
2017-12-22T00:06:36.866Z,6.50
2017-12-22T00:09:04.849Z,6.50
2017-12-22T00:11:33.052Z,6.60
2017-12-22T00:14:01.044Z,6.50
2017-12-22T00:16:29.793Z,6.50
2017-12-22T00:18:58.028Z,6.50
2017-12-22T00:21:26.787Z,6.60
2017-12-22T00:23:54.772Z,6.50
2017-12-22T00:26:22.896Z,6.60
2017-12-22T00:28:50.884Z,6.60
2017-12-22T00:31:19.636Z,6.70
2017-12-22T00:33:47.672Z,6.60
2017-12-22T00:36:16.536Z,6.60
2017-12-22T00:38:44.527Z,6.60
2017-12-22T00:41:12.569Z,6.70
2017-12-22T00:43:40.559Z,6.70
2017-12-22T00:46:08.544Z,6.70
2017-12-22T00:48:36.577Z,6.70
2017-12-22T00:51:04.573Z,6.60
2017-12-22T00:53:33.319Z,6.70
2017-12-22T00:56:01.349Z,6.70
2017-12-22T00:58:29.332Z,6.60
2017-12-22T01:00:58.080Z,6.60
2017-12-22T01:03:26.327Z,6.60
2017-12-22T01:05:55.081Z,6.60
2017-12-22T01:08:23.060Z,6.60
2017-12-22T01:10:51.453Z,6.70
2017-12-22T01:13:19.428Z,6.70
2017-12-22T01:15:53.244Z,6.70
2017-12-22T01:18:26.964Z,6.70
2017-12-22T01:20:55.087Z,6.60
2017-12-22T01:23:23.847Z,6.60
2017-12-22T01:25:51.835Z,6.60
2017-12-22T01:28:19.917Z,6.60
2017-12-22T01:30:47.994Z,6.70
2017-12-22T01:33:16.029Z,6.80
2017-12-22T01:35:45.571Z,6.70
2017-12-22T01:38:14.396Z,6.70
2017-12-22T01:40:42.435Z,6.70
2017-12-22T01:43:10.515Z,6.80
2017-12-22T01:45:38.545Z,6.70
2017-12-22T01:48:06.573Z,6.80
2017-12-22T01:50:34.629Z,6.80
2017-12-22T01:53:02.788Z,6.80
2017-12-22T01:55:30.816Z,6.80
2017-12-22T01:57:58.849Z,6.80
2017-12-22T02:00:27.666Z,6.90
2017-12-22T02:02:55.692Z,6.80
2017-12-22T02:05:23.869Z,6.90
2017-12-22T02:07:51.909Z,6.90
2017-12-22T02:10:19.949Z,6.80
2017-12-22T02:12:47.994Z,6.80
2017-12-22T02:15:16.025Z,6.80
2017-12-22T02:17:44.093Z,6.80
2017-12-22T02:20:12.125Z,6.90
2017-12-22T02:22:40.205Z,6.80
2017-12-22T02:25:09.001Z,6.80
2017-12-22T02:27:37.797Z,6.80
2017-12-22T02:30:06.618Z,6.70
2017-12-22T02:32:34.653Z,6.70
2017-12-22T02:35:02.870Z,6.70
2017-12-22T02:37:30.912Z,6.80
2017-12-22T02:39:58.945Z,6.80
2017-12-22T02:42:27.761Z,6.80
2017-12-22T02:44:55.794Z,6.70
2017-12-22T02:47:23.864Z,6.80
2017-12-22T02:49:51.902Z,6.80
2017-12-22T02:52:20.697Z,6.80
2017-12-22T02:54:49.506Z,6.80
2017-12-22T02:57:18.309Z,6.70
2017-12-22T02:59:47.149Z,6.80
2017-12-22T03:02:15.187Z,6.70
2017-12-22T03:04:43.996Z,6.80
2017-12-22T03:07:12.053Z,6.70
2017-12-22T03:09:40.093Z,6.70
2017-12-22T03:12:08.161Z,6.70
2017-12-22T03:14:36.192Z,6.70
2017-12-22T03:17:04.224Z,6.60
2017-12-22T03:19:32.273Z,6.60
2017-12-22T03:22:00.305Z,6.60
2017-12-22T03:24:28.382Z,6.60
2017-12-22T03:26:56.417Z,6.70
2017-12-22T03:29:24.455Z,7.40
2017-12-22T03:31:52.500Z,6.70
2017-12-22T03:34:21.300Z,6.70
2017-12-22T03:36:50.116Z,6.70
2017-12-22T03:39:18.914Z,6.70
2017-12-22T03:41:47.728Z,6.60
2017-12-22T03:44:15.777Z,6.50
2017-12-22T03:46:43.864Z,6.60
2017-12-22T03:49:11.905Z,6.60
2017-12-22T03:51:39.942Z,6.60
2017-12-22T03:54:08.759Z,6.60
2017-12-22T03:56:36.793Z,6.60
2017-12-22T03:59:04.844Z,6.70
2017-12-22T04:01:32.895Z,6.60
2017-12-22T04:04:01.709Z,6.70
2017-12-22T04:06:29.761Z,6.60
2017-12-22T04:08:57.816Z,6.60
2017-12-22T04:11:25.850Z,6.60
2017-12-22T04:13:54.657Z,6.60
2017-12-22T04:16:23.472Z,6.60
2017-12-22T04:18:51.512Z,6.60
2017-12-22T04:21:19.601Z,6.60
2017-12-22T04:23:49.141Z,6.60
2017-12-22T04:26:17.932Z,6.70
2017-12-22T04:28:46.753Z,6.60
2017-12-22T04:31:14.784Z,6.60
2017-12-22T04:33:42.870Z,6.60
2017-12-22T04:36:10.905Z,6.60
2017-12-22T04:38:38.957Z,6.70
2017-12-22T04:41:07.009Z,6.70
2017-12-22T04:43:35.043Z,6.70
2017-12-22T04:46:03.857Z,6.60
2017-12-22T04:48:31.894Z,6.60
2017-12-22T04:50:59.953Z,6.70
2017-12-22T04:53:28.010Z,6.70
2017-12-22T04:55:56.045Z,6.60
2017-12-22T04:58:24.097Z,6.60
2017-12-22T05:00:52.133Z,6.60
2017-12-22T05:03:20.173Z,6.60
2017-12-22T05:05:48.220Z,6.60
2017-12-22T05:08:17.030Z,6.60
2017-12-22T05:10:45.833Z,6.60
2017-12-22T05:13:13.891Z,6.50
2017-12-22T05:15:41.926Z,6.60
2017-12-22T05:18:09.962Z,6.60
2017-12-22T05:20:38.786Z,6.50
2017-12-22T05:23:06.829Z,6.50
2017-12-22T05:25:35.128Z,6.50
2017-12-22T05:28:04.273Z,6.50
2017-12-22T05:30:32.310Z,6.50
2017-12-22T05:33:00.366Z,6.50
2017-12-22T05:35:28.396Z,6.50
2017-12-22T05:37:57.200Z,6.50
2017-12-22T05:40:26.020Z,6.50
2017-12-22T05:42:54.821Z,6.50
2017-12-22T05:45:23.632Z,6.50
2017-12-22T05:47:51.669Z,6.40
2017-12-22T05:50:19.700Z,6.50
2017-12-22T05:52:47.748Z,6.50
2017-12-22T05:55:15.785Z,6.50
2017-12-22T05:57:43.836Z,6.50
2017-12-22T06:00:12.693Z,6.50
2017-12-22T06:02:40.730Z,6.50
2017-12-22T06:05:08.766Z,6.50
2017-12-22T06:07:37.012Z,6.50
2017-12-22T06:10:05.057Z,6.50
2017-12-22T06:12:33.092Z,6.40
2017-12-22T06:15:01.162Z,6.50
2017-12-22T06:17:29.196Z,6.50
2017-12-22T06:19:57.236Z,6.50
2017-12-22T06:22:25.333Z,6.50
2017-12-22T06:24:53.366Z,6.50
2017-12-22T06:27:22.157Z,6.50
2017-12-22T06:29:50.213Z,6.50
2017-12-22T06:32:18.248Z,6.50
2017-12-22T06:34:47.092Z,6.40
2017-12-22T06:37:15.122Z,6.40
2017-12-22T06:39:43.209Z,6.50
2017-12-22T06:42:12.024Z,6.50
2017-12-22T06:44:40.065Z,6.40
2017-12-22T06:47:08.136Z,6.40
2017-12-22T06:49:36.173Z,6.50
2017-12-22T06:52:04.344Z,6.50
2017-12-22T06:54:33.140Z,6.50
2017-12-22T06:57:01.992Z,6.50
2017-12-22T06:59:30.790Z,6.50
2017-12-22T07:01:59.585Z,6.50
2017-12-22T07:04:28.449Z,6.50
2017-12-22T07:06:56.541Z,6.40
2017-12-22T07:09:24.565Z,6.50
2017-12-22T07:11:53.376Z,6.60
2017-12-22T07:14:21.416Z,6.50
2017-12-22T07:16:49.757Z,6.50
2017-12-22T07:19:17.796Z,6.50
2017-12-22T07:21:45.845Z,6.50
2017-12-22T07:24:13.973Z,6.50
2017-12-22T07:26:41.997Z,6.50
2017-12-22T07:29:10.080Z,6.50
2017-12-22T07:31:38.106Z,6.50
2017-12-22T07:34:06.208Z,6.50
2017-12-22T07:36:35.041Z,6.50
2017-12-22T07:39:04.015Z,6.50
2017-12-22T07:41:32.060Z,6.50
2017-12-22T07:44:00.095Z,6.50
2017-12-22T07:46:28.929Z,6.60
2017-12-22T07:48:56.957Z,6.50
2017-12-22T07:51:24.992Z,6.60
2017-12-22T07:53:53.041Z,6.60
2017-12-22T07:56:21.879Z,6.60
2017-12-22T07:58:49.913Z,6.60
2017-12-22T08:01:17.953Z,6.60
2017-12-22T08:03:45.997Z,6.70
2017-12-22T08:06:14.809Z,6.80
2017-12-22T08:08:43.001Z,6.70
2017-12-22T08:11:11.045Z,6.70
2017-12-22T08:13:39.069Z,6.70
2017-12-22T08:16:07.130Z,6.70
2017-12-22T08:18:35.932Z,6.70
2017-12-22T08:21:04.978Z,6.70
2017-12-22T08:23:33.844Z,6.70
2017-12-22T08:26:02.641Z,6.70
2017-12-22T08:28:30.717Z,6.70
2017-12-22T08:30:58.746Z,6.70
2017-12-22T08:33:26.922Z,6.70
2017-12-22T08:35:54.957Z,6.70
2017-12-22T08:38:22.990Z,6.70
2017-12-22T08:40:51.069Z,6.80
2017-12-22T08:43:19.092Z,6.70
2017-12-22T08:45:47.216Z,6.70
2017-12-22T08:48:16.028Z,6.80
2017-12-22T08:50:44.832Z,6.70
2017-12-22T08:53:13.676Z,6.70
2017-12-22T08:55:41.697Z,6.70
2017-12-22T08:58:10.012Z,6.80
2017-12-22T09:00:38.086Z,6.80
2017-12-22T09:03:06.405Z,6.80
2017-12-22T09:05:34.440Z,6.90
2017-12-22T09:08:02.465Z,6.90
2017-12-22T09:10:30.516Z,6.90
2017-12-22T09:12:59.312Z,7.00
2017-12-22T09:15:27.381Z,7.00
2017-12-22T09:17:55.422Z,7.00
2017-12-22T09:20:23.451Z,7.00
2017-12-22T09:22:51.500Z,7.00
2017-12-22T09:25:19.538Z,7.10
2017-12-22T09:27:48.364Z,7.10
2017-12-22T09:30:16.408Z,7.00
2017-12-22T09:32:44.440Z,7.00
2017-12-22T09:35:12.500Z,7.00
2017-12-22T09:37:41.322Z,7.00
2017-12-22T09:40:09.352Z,7.00
2017-12-22T09:42:37.426Z,7.10
2017-12-22T09:45:05.446Z,7.10
2017-12-22T09:47:34.257Z,7.20
2017-12-22T09:50:02.309Z,7.10
2017-12-22T09:52:30.337Z,7.20
2017-12-22T09:54:58.386Z,7.30
2017-12-22T09:57:26.412Z,7.30
2017-12-22T09:59:54.648Z,7.30
2017-12-22T10:02:22.572Z,7.30
2017-12-22T10:04:50.557Z,7.20
2017-12-22T10:07:18.693Z,7.20
2017-12-22T10:09:46.667Z,7.20
2017-12-22T10:12:14.656Z,7.20
2017-12-22T10:14:42.684Z,7.30
2017-12-22T10:17:10.692Z,7.30
2017-12-22T10:19:38.676Z,7.30
2017-12-22T10:22:06.808Z,7.20
2017-12-22T10:24:35.564Z,7.20
2017-12-22T10:27:03.544Z,7.10
2017-12-22T10:29:31.676Z,7.30
2017-12-22T10:32:00.426Z,7.30
2017-12-22T10:34:28.404Z,7.30
2017-12-22T10:36:56.416Z,7.40
2017-12-22T10:39:24.396Z,7.40
2017-12-22T10:41:52.392Z,7.40
2017-12-22T10:44:21.195Z,7.40
2017-12-22T10:46:49.948Z,7.50
2017-12-22T10:49:17.940Z,7.50
2017-12-22T10:51:46.159Z,7.60
2017-12-22T10:54:14.144Z,7.70
2017-12-22T10:56:42.140Z,7.80
2017-12-22T10:59:10.923Z,7.70
2017-12-22T11:01:38.901Z,7.70
2017-12-22T11:04:06.889Z,7.80
2017-12-22T11:06:34.917Z,7.80
2017-12-22T11:09:02.897Z,7.70
2017-12-22T11:11:30.876Z,7.70
2017-12-22T11:13:58.992Z,7.70
2017-12-22T11:16:26.979Z,7.70
2017-12-22T11:18:54.976Z,7.70
2017-12-22T11:21:22.996Z,7.70
2017-12-22T11:23:50.976Z,7.70
2017-12-22T11:26:18.969Z,7.70
2017-12-22T11:28:46.972Z,7.70
2017-12-22T11:31:14.956Z,7.70
2017-12-22T11:33:42.946Z,7.80
2017-12-22T11:36:10.966Z,7.80
2017-12-22T11:38:39.728Z,7.80
2017-12-22T11:41:07.707Z,7.80
2017-12-22T11:43:35.828Z,7.90
2017-12-22T11:46:03.813Z,7.80
2017-12-22T11:48:31.803Z,7.90
2017-12-22T11:51:00.580Z,7.80
2017-12-22T11:53:28.562Z,7.80
2017-12-22T11:55:56.550Z,7.90
2017-12-22T11:58:24.564Z,7.80
2017-12-22T12:00:53.317Z,7.70
2017-12-22T12:03:21.291Z,7.70
2017-12-22T12:05:49.304Z,7.70
2017-12-22T12:08:17.293Z,7.70
2017-12-22T12:10:45.280Z,7.70
2017-12-22T12:13:14.096Z,7.80
2017-12-22T12:15:42.080Z,7.70
2017-12-22T12:18:10.069Z,7.80
2017-12-22T12:20:38.085Z,7.70
2017-12-22T12:23:06.463Z,7.80
2017-12-22T12:25:34.449Z,7.90
2017-12-22T12:28:02.456Z,7.90
2017-12-22T12:30:30.529Z,7.90
2017-12-22T12:32:58.508Z,7.90
2017-12-22T12:35:26.727Z,7.90
2017-12-22T12:37:54.708Z,7.80
2017-12-22T12:40:22.696Z,7.70
2017-12-22T12:42:51.492Z,7.80
2017-12-22T12:45:19.477Z,7.70
2017-12-22T12:47:47.513Z,7.80
2017-12-22T12:50:15.508Z,7.80
2017-12-22T12:52:43.496Z,7.80
2017-12-22T12:55:11.496Z,7.70
2017-12-22T12:57:39.500Z,7.70
2017-12-22T13:00:08.260Z,7.80
2017-12-22T13:02:36.240Z,7.70
2017-12-22T13:05:04.265Z,7.80
2017-12-22T13:07:32.240Z,7.80
2017-12-22T13:10:00.325Z,7.70
2017-12-22T13:12:28.424Z,7.80
2017-12-22T13:14:57.169Z,7.80
2017-12-22T13:17:25.152Z,7.70
2017-12-22T13:19:53.156Z,7.70
2017-12-22T13:22:21.146Z,7.80
2017-12-22T13:24:49.161Z,7.90
2017-12-22T13:27:17.212Z,7.90
2017-12-22T13:29:45.213Z,7.80
2017-12-22T13:32:13.975Z,7.60
2017-12-22T13:34:41.985Z,7.60
2017-12-22T13:37:09.965Z,7.70
2017-12-22T13:39:37.945Z,7.70
2017-12-22T13:42:05.952Z,7.70
2017-12-22T13:44:34.705Z,7.70
2017-12-22T13:47:02.689Z,7.60
2017-12-22T13:49:30.728Z,7.70
2017-12-22T13:51:58.729Z,7.70
2017-12-22T13:54:26.707Z,7.60
2017-12-22T13:56:54.732Z,7.60
2017-12-22T13:59:22.723Z,7.60
2017-12-22T14:01:50.709Z,7.70
2017-12-22T14:04:18.723Z,7.70
2017-12-22T14:06:46.704Z,7.70
2017-12-22T14:09:14.698Z,7.70
2017-12-22T14:11:42.727Z,7.70
2017-12-22T14:14:10.720Z,7.80
2017-12-22T14:16:38.708Z,7.80
2017-12-22T14:19:06.733Z,7.80
2017-12-22T14:21:34.711Z,7.80
2017-12-22T14:24:02.705Z,7.70
2017-12-22T14:26:30.704Z,7.80
2017-12-22T14:28:58.900Z,7.70
2017-12-22T14:31:26.922Z,7.70
2017-12-22T14:33:55.726Z,7.80
2017-12-22T14:36:24.471Z,7.80
2017-12-22T14:38:52.452Z,7.70
2017-12-22T14:41:20.472Z,7.80
2017-12-22T14:43:49.232Z,7.80
2017-12-22T14:46:17.220Z,7.70
2017-12-22T14:48:45.240Z,7.80
2017-12-22T14:51:13.230Z,7.80
2017-12-22T14:53:41.982Z,7.80
2017-12-22T14:56:10.275Z,7.80
2017-12-22T14:58:38.259Z,7.80
2017-12-22T15:01:06.549Z,7.90
2017-12-22T15:03:34.556Z,7.80
2017-12-22T15:06:02.536Z,7.80
2017-12-22T15:08:30.524Z,7.70
2017-12-22T15:10:58.641Z,7.70
2017-12-22T15:13:26.623Z,7.70
2017-12-22T15:15:54.656Z,7.80
2017-12-22T15:18:22.688Z,7.70
2017-12-22T15:20:50.708Z,7.70
2017-12-22T15:23:18.693Z,7.70
2017-12-22T15:25:46.712Z,7.70
2017-12-22T15:28:14.708Z,7.60
2017-12-22T15:30:43.452Z,7.70
2017-12-22T15:33:11.476Z,7.60
2017-12-22T15:35:39.467Z,7.60
2017-12-22T15:38:08.216Z,7.60
2017-12-22T15:40:36.249Z,7.50
2017-12-22T15:43:04.996Z,7.50
2017-12-22T15:45:32.986Z,7.50
2017-12-22T15:48:01.009Z,7.40
2017-12-22T15:50:29.796Z,7.30
2017-12-22T15:52:57.780Z,7.30
2017-12-22T15:55:25.803Z,7.20
2017-12-22T15:57:53.780Z,7.20
2017-12-22T16:00:21.776Z,7.20
2017-12-22T16:02:49.789Z,7.20
2017-12-22T16:05:17.828Z,7.10
2017-12-22T16:07:45.778Z,7.10
2017-12-22T16:10:13.881Z,7.00
2017-12-22T16:12:42.643Z,6.90
2017-12-22T16:15:10.632Z,6.90
2017-12-22T16:17:38.643Z,6.90
2017-12-22T16:20:07.409Z,6.90
2017-12-22T16:22:35.390Z,6.90
2017-12-22T16:25:03.404Z,7.00
2017-12-22T16:27:31.392Z,7.00
2017-12-22T16:30:00.136Z,7.00
2017-12-22T16:32:28.267Z,7.00
2017-12-22T16:34:56.237Z,7.00
2017-12-22T16:37:24.231Z,7.00
2017-12-22T16:39:52.340Z,7.00
2017-12-22T16:42:21.092Z,7.00
2017-12-22T16:44:49.091Z,6.90
2017-12-22T16:47:17.141Z,7.00
2017-12-22T16:49:45.208Z,7.00
2017-12-22T16:52:13.203Z,7.00
2017-12-22T16:54:41.237Z,7.00
2017-12-22T16:57:09.233Z,6.90
2017-12-22T16:59:37.980Z,6.80
2017-12-22T17:02:06.004Z,6.70
2017-12-22T17:04:33.984Z,6.70
2017-12-22T17:07:01.964Z,6.70
2017-12-22T17:09:29.976Z,6.70
2017-12-22T17:11:57.956Z,6.70
2017-12-22T17:14:25.949Z,6.60
2017-12-22T17:16:54.080Z,6.60
2017-12-22T17:19:22.071Z,6.60
2017-12-22T17:21:50.052Z,6.50
2017-12-22T17:24:18.128Z,6.50
2017-12-22T17:26:46.092Z,6.50
2017-12-22T17:29:14.080Z,6.40
2017-12-22T17:31:42.113Z,6.40
2017-12-22T17:34:10.948Z,6.30
2017-12-22T17:36:39.532Z,6.30
2017-12-22T17:39:07.552Z,6.30
2017-12-22T17:41:35.713Z,6.30
2017-12-22T17:44:03.696Z,6.30
2017-12-22T17:46:31.823Z,6.20
2017-12-22T17:48:59.804Z,6.20
2017-12-22T17:51:27.788Z,6.20
2017-12-22T17:53:55.852Z,6.20
2017-12-22T17:56:23.828Z,6.20
2017-12-22T17:58:51.920Z,6.20
2017-12-22T18:01:19.939Z,6.20
2017-12-22T18:03:48.692Z,6.20
2017-12-22T18:06:16.687Z,6.20
2017-12-22T18:08:44.708Z,6.10
2017-12-22T18:11:13.469Z,6.00
2017-12-22T18:13:41.460Z,6.00
2017-12-22T18:16:09.465Z,6.00
2017-12-22T18:18:38.216Z,5.80
2017-12-22T18:21:06.204Z,5.80
2017-12-22T18:23:34.324Z,5.80
2017-12-22T18:26:02.309Z,5.80
2017-12-22T18:28:30.294Z,5.80
2017-12-22T18:30:59.076Z,5.70
2017-12-22T18:33:27.066Z,5.60
2017-12-22T18:35:55.048Z,5.50
2017-12-22T18:38:23.079Z,5.60
2017-12-22T18:40:51.065Z,5.60
2017-12-22T18:43:19.049Z,5.50
2017-12-22T18:45:47.301Z,5.50
2017-12-22T18:48:16.056Z,5.40
2017-12-22T18:50:44.036Z,5.40
2017-12-22T18:53:12.264Z,5.30
2017-12-22T18:55:41.017Z,5.40
2017-12-22T18:58:09.003Z,5.30
2017-12-22T19:00:37.012Z,5.40
2017-12-22T19:03:04.998Z,5.30
2017-12-22T19:05:32.991Z,5.30
2017-12-22T19:08:01.286Z,5.30
2017-12-22T19:10:29.264Z,5.30
2017-12-22T19:12:58.032Z,5.60
2017-12-22T19:15:26.135Z,5.50
2017-12-22T19:17:54.122Z,5.60
2017-12-22T19:20:23.621Z,5.60
2017-12-22T19:22:51.640Z,5.60
2017-12-22T19:25:20.396Z,5.70
2017-12-22T19:27:48.416Z,5.60
2017-12-22T19:30:17.212Z,5.60
2017-12-22T19:32:45.201Z,5.50
2017-12-22T19:35:13.968Z,5.40
2017-12-22T19:37:42.012Z,5.30
2017-12-22T19:40:10.008Z,5.40
2017-12-22T19:42:38.001Z,5.50
2017-12-22T19:45:06.016Z,5.50
2017-12-22T19:47:35.540Z,5.50
2017-12-22T19:50:03.528Z,5.50
2017-12-22T19:52:31.716Z,5.50
2017-12-22T19:54:59.702Z,5.50
2017-12-22T19:57:28.454Z,5.50
2017-12-22T19:59:56.476Z,5.40
2017-12-22T20:02:24.467Z,5.60
2017-12-22T20:04:52.456Z,5.60
2017-12-22T20:07:21.253Z,5.70
2017-12-22T20:09:49.228Z,5.60
2017-12-22T20:12:17.225Z,5.70
2017-12-22T20:14:46.216Z,5.70
2017-12-22T20:17:14.200Z,5.70
2017-12-22T20:19:42.224Z,5.70
2017-12-22T20:22:10.374Z,5.60
2017-12-22T20:24:39.124Z,5.50
2017-12-22T20:27:07.107Z,5.50
2017-12-22T20:29:35.137Z,5.50
2017-12-22T20:32:03.895Z,5.60
2017-12-22T20:34:31.884Z,5.60
2017-12-22T20:37:00.104Z,5.70
2017-12-22T20:39:28.097Z,5.70
2017-12-22T20:41:56.852Z,5.70
2017-12-22T20:44:24.892Z,5.60
2017-12-22T20:46:54.460Z,5.70
2017-12-22T20:49:22.472Z,5.70
2017-12-22T20:51:50.498Z,5.60
2017-12-22T20:54:18.489Z,5.60
2017-12-22T20:56:46.484Z,5.50
2017-12-22T20:59:14.723Z,5.50
2017-12-22T21:01:44.139Z,5.50
2017-12-22T21:04:12.113Z,5.40
2017-12-22T21:06:40.912Z,5.50
2017-12-22T21:09:09.702Z,5.50
2017-12-22T21:11:37.667Z,5.50
2017-12-22T21:14:05.777Z,5.50
2017-12-22T21:16:33.696Z,5.50
2017-12-22T21:19:01.697Z,5.50
2017-12-22T21:21:29.736Z,5.60
2017-12-22T21:23:58.801Z,5.70
2017-12-22T21:26:26.784Z,5.60
2017-12-22T21:28:54.816Z,5.70
2017-12-22T21:31:23.599Z,5.70
2017-12-22T21:33:52.364Z,5.70
2017-12-22T21:36:20.761Z,5.70
2017-12-22T21:38:48.740Z,6.70
2017-12-22T21:41:16.760Z,5.80
2017-12-22T21:43:45.543Z,5.70
2017-12-22T21:46:13.549Z,5.70
2017-12-22T21:48:42.310Z,5.60
2017-12-22T21:51:10.352Z,5.60
2017-12-22T21:53:38.340Z,5.70
2017-12-22T21:56:06.332Z,5.60
2017-12-22T21:58:34.348Z,5.60
2017-12-22T22:01:02.356Z,5.70
2017-12-22T22:03:31.529Z,5.80
2017-12-22T22:05:59.560Z,5.70
2017-12-22T22:08:28.313Z,5.80
2017-12-22T22:10:56.300Z,5.70
2017-12-22T22:13:24.361Z,5.70
2017-12-22T22:15:52.323Z,5.70
2017-12-22T22:18:20.325Z,5.70
2017-12-22T22:20:48.445Z,5.70
2017-12-22T22:23:16.448Z,5.70
2017-12-22T22:25:44.431Z,5.80
2017-12-22T22:28:13.267Z,5.80
2017-12-22T22:30:41.276Z,5.80
2017-12-22T22:33:09.264Z,5.90
2017-12-22T22:35:37.398Z,5.90
2017-12-22T22:38:06.155Z,5.90
2017-12-22T22:40:34.157Z,5.90
2017-12-22T22:43:02.184Z,5.90
2017-12-22T22:45:30.182Z,5.90
2017-12-22T22:47:58.186Z,5.80
2017-12-22T22:50:26.203Z,6.00
2017-12-22T22:52:54.970Z,6.00
2017-12-22T22:55:22.956Z,5.90
2017-12-22T22:57:51.160Z,6.00
2017-12-22T23:00:19.152Z,6.00
2017-12-22T23:02:47.916Z,6.00
2017-12-22T23:05:16.124Z,6.00
2017-12-22T23:07:44.137Z,6.00
2017-12-22T23:10:12.128Z,5.90
2017-12-22T23:12:40.144Z,6.00
2017-12-22T23:15:08.144Z,6.00
2017-12-22T23:17:36.128Z,5.90
2017-12-22T23:20:04.144Z,6.00
2017-12-22T23:22:32.908Z,6.00
2017-12-22T23:25:00.904Z,6.00
2017-12-22T23:27:28.925Z,6.00
2017-12-22T23:29:56.912Z,6.00
2017-12-22T23:32:24.908Z,6.00
2017-12-22T23:34:53.052Z,6.00
2017-12-22T23:37:21.032Z,6.00
2017-12-22T23:39:49.788Z,6.00
2017-12-22T23:42:17.804Z,5.90
2017-12-22T23:44:45.807Z,6.00
2017-12-22T23:47:14.560Z,6.10
2017-12-22T23:49:42.587Z,6.00
2017-12-22T23:52:12.092Z,6.20
2017-12-22T23:54:40.859Z,6.20
2017-12-22T23:57:09.076Z,6.10
2017-12-22T23:59:37.831Z,6.20
